createdAt,value
2023-02-11T00:01:00.634Z,61.70
2023-02-11T00:03:27.667Z,60.88
2023-02-11T00:06:03.085Z,61.72
2023-02-11T00:08:30.155Z,60.54
2023-02-11T00:10:58.276Z,60.71
2023-02-11T00:13:25.893Z,61.04
2023-02-11T00:15:53.637Z,61.13
2023-02-11T00:18:20.700Z,61.54
2023-02-11T00:20:47.662Z,61.12
2023-02-11T00:23:15.216Z,61.35
2023-02-11T00:25:44.289Z,61.41
2023-02-11T00:28:12.005Z,61.05
2023-02-11T00:30:41.391Z,61.07
2023-02-11T00:33:09.046Z,60.74
2023-02-11T00:35:38.803Z,61.47
2023-02-11T00:38:08.169Z,61.61
2023-02-11T00:40:35.198Z,61.39
2023-02-11T00:43:03.906Z,61.30
2023-02-11T00:45:31.004Z,61.25
2023-02-11T00:47:58.295Z,61.59
2023-02-11T00:50:25.346Z,61.51
2023-02-11T00:52:52.364Z,61.40
2023-02-11T00:55:19.460Z,60.97
2023-02-11T00:57:46.704Z,61.60
2023-02-11T01:00:17.115Z,61.58
2023-02-11T01:02:45.051Z,61.85
2023-02-11T01:05:12.103Z,61.30
2023-02-11T01:07:39.197Z,61.33
2023-02-11T01:10:06.592Z,62.27
2023-02-11T01:12:36.264Z,61.93
2023-02-11T01:15:04.855Z,62.12
2023-02-11T01:17:34.248Z,61.45
2023-02-11T01:20:09.417Z,62.43
2023-02-11T01:22:39.651Z,62.07
2023-02-11T01:25:07.975Z,62.11
2023-02-11T01:27:36.798Z,62.25
2023-02-11T01:30:06.721Z,62.35
2023-02-11T01:32:34.228Z,61.68
2023-02-11T01:35:01.238Z,61.89
2023-02-11T01:37:33.494Z,61.47
2023-02-11T01:40:02.266Z,62.21
2023-02-11T01:42:31.395Z,62.62
2023-02-11T01:45:01.035Z,61.93
2023-02-11T01:47:28.141Z,61.89
2023-02-11T01:50:01.067Z,61.85
2023-02-11T01:52:39.884Z,62.79
2023-02-11T01:55:31.661Z,62.02
2023-02-11T01:58:04.713Z,62.91
2023-02-11T02:00:39.153Z,62.43
2023-02-11T02:03:18.164Z,62.83
2023-02-11T02:06:10.993Z,62.19
2023-02-11T02:08:41.977Z,62.82
2023-02-11T02:11:10.805Z,61.76
2023-02-11T02:13:40.950Z,62.63
2023-02-11T02:16:16.612Z,62.44
2023-02-11T02:19:20.646Z,62.47
2023-02-11T02:22:06.041Z,63.04
2023-02-11T02:24:56.820Z,62.71
2023-02-11T02:27:51.533Z,62.04
2023-02-11T02:30:24.734Z,62.19
2023-02-11T02:33:21.704Z,62.05
2023-02-11T02:36:09.419Z,61.29
2023-02-11T02:39:01.050Z,61.17
2023-02-11T02:41:34.528Z,61.66
2023-02-11T02:44:02.053Z,61.80
2023-02-11T02:46:32.238Z,61.25
2023-02-11T02:49:00.178Z,61.22
2023-02-11T02:51:33.189Z,60.55
2023-02-11T02:54:18.860Z,60.69
2023-02-11T02:57:08.799Z,60.55
2023-02-11T02:59:41.482Z,60.32
2023-02-11T03:02:33.361Z,60.10
2023-02-11T03:05:12.396Z,60.90
2023-02-11T03:07:53.933Z,60.94
2023-02-11T03:10:27.057Z,60.21
2023-02-11T03:12:56.132Z,60.68
2023-02-11T03:15:26.908Z,60.10
2023-02-11T03:17:58.665Z,60.15
2023-02-11T03:20:28.390Z,60.36
2023-02-11T03:23:16.476Z,59.92
2023-02-11T03:25:53.111Z,60.51
2023-02-11T03:28:29.585Z,60.30
2023-02-11T03:31:10.525Z,59.91
2023-02-11T03:33:44.208Z,60.28
2023-02-11T03:36:18.282Z,59.83
2023-02-11T03:38:54.076Z,60.11
2023-02-11T03:41:24.769Z,59.97
2023-02-11T03:43:57.193Z,60.19
2023-02-11T03:46:31.514Z,59.72
2023-02-11T03:49:03.924Z,59.75
2023-02-11T03:51:32.614Z,60.01
2023-02-11T03:54:03.684Z,60.26
2023-02-11T03:56:33.445Z,59.96
2023-02-11T03:59:00.547Z,59.65
2023-02-11T04:01:27.716Z,59.61
2023-02-11T04:03:54.772Z,60.46
2023-02-11T04:06:21.757Z,59.56
2023-02-11T04:08:48.747Z,59.66
2023-02-11T04:11:15.726Z,59.74
2023-02-11T04:13:42.701Z,59.68
2023-02-11T04:16:09.735Z,59.74
2023-02-11T04:18:36.733Z,60.55
2023-02-11T04:21:03.931Z,59.84
2023-02-11T04:23:30.933Z,59.53
2023-02-11T04:25:57.937Z,59.49
2023-02-11T04:28:25.013Z,59.44
2023-02-11T04:30:52.051Z,59.75
2023-02-11T04:33:19.100Z,60.56
2023-02-11T04:35:46.259Z,60.13
2023-02-11T04:38:14.137Z,60.38
2023-02-11T04:40:41.410Z,60.09
2023-02-11T04:43:08.574Z,60.49
2023-02-11T04:45:35.572Z,60.47
2023-02-11T04:48:03.912Z,60.42
2023-02-11T04:50:31.240Z,60.35
2023-02-11T04:52:58.255Z,61.35
2023-02-11T04:55:25.269Z,60.44
2023-02-11T04:57:52.298Z,60.58
2023-02-11T05:00:19.327Z,60.31
2023-02-11T05:02:46.342Z,60.39
2023-02-11T05:05:13.298Z,61.15
2023-02-11T05:07:40.346Z,60.44
2023-02-11T05:10:07.448Z,60.02
2023-02-11T05:12:34.469Z,60.36
2023-02-11T05:15:01.468Z,60.33
2023-02-11T05:17:31.116Z,60.85
2023-02-11T05:19:58.120Z,60.33
2023-02-11T05:22:25.133Z,59.96
2023-02-11T05:24:52.124Z,60.47
2023-02-11T05:27:19.118Z,60.80
2023-02-11T05:29:46.300Z,60.41
2023-02-11T05:32:13.330Z,60.96
2023-02-11T05:34:40.341Z,60.90
2023-02-11T05:37:07.404Z,60.93
2023-02-11T05:39:34.399Z,61.08
2023-02-11T05:42:01.418Z,60.63
2023-02-11T05:44:28.440Z,60.38
2023-02-11T05:46:55.510Z,60.93
2023-02-11T05:49:22.540Z,60.57
2023-02-11T05:51:49.522Z,61.21
2023-02-11T05:54:16.940Z,60.21
2023-02-11T05:56:45.006Z,60.78
2023-02-11T05:59:14.648Z,60.26
2023-02-11T06:01:41.873Z,60.77
2023-02-11T06:04:08.860Z,60.43
2023-02-11T06:06:35.965Z,60.28
2023-02-11T06:09:03.388Z,59.74
2023-02-11T06:11:30.649Z,60.18
2023-02-11T06:13:57.706Z,60.13
2023-02-11T06:16:24.917Z,59.58
2023-02-11T06:18:51.968Z,59.64
2023-02-11T06:21:19.024Z,59.93
2023-02-11T06:23:46.018Z,59.78
2023-02-11T06:26:22.268Z,59.57
2023-02-11T06:28:49.877Z,60.06
2023-02-11T06:31:17.677Z,59.61
2023-02-11T06:33:44.789Z,59.83
2023-02-11T06:36:18.273Z,59.61
2023-02-11T06:38:45.771Z,59.86
2023-02-11T06:41:17.816Z,59.47
2023-02-11T06:43:44.846Z,59.49
2023-02-11T06:46:12.201Z,59.67
2023-02-11T06:48:39.270Z,59.16
2023-02-11T06:51:09.600Z,59.52
2023-02-11T06:53:38.740Z,58.94
2023-02-11T06:56:08.429Z,58.93
2023-02-11T06:58:36.117Z,59.31
2023-02-11T07:01:10.088Z,59.20
2023-02-11T07:03:39.148Z,58.71
2023-02-11T07:06:08.233Z,58.20
2023-02-11T07:08:36.397Z,58.43
2023-02-11T07:11:11.415Z,58.10
2023-02-11T07:13:38.529Z,58.05
2023-02-11T07:16:11.017Z,58.34
2023-02-11T07:18:38.181Z,58.37
2023-02-11T07:21:07.146Z,57.86
2023-02-11T07:23:35.521Z,58.21
2023-02-11T07:26:10.805Z,58.27
2023-02-11T07:28:39.076Z,57.86
2023-02-11T07:31:18.439Z,57.31
2023-02-11T07:33:46.032Z,57.54
2023-02-11T07:36:15.195Z,57.46
2023-02-11T07:38:43.569Z,57.91
2023-02-11T07:41:12.767Z,57.17
2023-02-11T07:43:40.386Z,57.74
2023-02-11T07:46:11.507Z,57.29
2023-02-11T07:48:39.175Z,57.18
2023-02-11T07:51:08.975Z,57.25
2023-02-11T07:53:36.417Z,57.26
2023-02-11T07:56:05.625Z,56.96
2023-02-11T07:58:33.482Z,56.84
2023-02-11T08:01:06.554Z,56.53
2023-02-11T08:03:35.448Z,56.70
2023-02-11T08:06:07.159Z,56.59
2023-02-11T08:08:34.155Z,56.27
2023-02-11T08:11:22.577Z,56.51
2023-02-11T08:13:50.507Z,56.56
2023-02-11T08:16:28.183Z,56.31
2023-02-11T08:19:00.194Z,56.14
2023-02-11T08:21:28.166Z,55.99
2023-02-11T08:23:56.169Z,55.53
2023-02-11T08:26:29.120Z,55.55
2023-02-11T08:28:57.674Z,55.41
2023-02-11T08:31:28.105Z,54.71
2023-02-11T08:33:58.058Z,54.32
2023-02-11T08:36:28.675Z,53.69
2023-02-11T08:39:12.123Z,53.51
2023-02-11T08:41:45.456Z,53.39
2023-02-11T08:44:12.905Z,52.13
2023-02-11T08:46:40.045Z,52.39
2023-02-11T08:49:07.056Z,52.54
2023-02-11T08:51:34.290Z,52.47
2023-02-11T08:54:02.213Z,53.08
2023-02-11T08:56:31.549Z,52.84
2023-02-11T08:58:58.806Z,52.57
2023-02-11T09:01:28.820Z,52.58
2023-02-11T09:03:57.103Z,52.25
2023-02-11T09:06:25.711Z,52.70
2023-02-11T09:08:55.068Z,52.86
2023-02-11T09:11:27.583Z,52.65
2023-02-11T09:13:54.867Z,52.98
2023-02-11T09:16:26.331Z,53.55
2023-02-11T09:18:53.917Z,53.33
2023-02-11T09:21:21.044Z,53.46
2023-02-11T09:23:48.440Z,53.62
2023-02-11T09:26:18.435Z,53.74
2023-02-11T09:28:45.866Z,53.52
2023-02-11T09:31:18.396Z,53.97
2023-02-11T09:33:48.209Z,53.48
2023-02-11T09:36:22.478Z,53.91
2023-02-11T09:38:50.237Z,54.04
2023-02-11T09:41:23.175Z,54.11
2023-02-11T09:43:54.885Z,53.86
2023-02-11T09:46:24.354Z,54.38
2023-02-11T09:48:54.300Z,53.97
2023-02-11T09:51:36.284Z,54.66
2023-02-11T09:54:13.982Z,54.66
2023-02-11T09:56:40.981Z,54.37
2023-02-11T09:59:15.358Z,54.74
2023-02-11T10:01:50.565Z,54.80
2023-02-11T10:04:36.453Z,54.51
2023-02-11T10:07:28.903Z,54.59
2023-02-11T10:10:29.706Z,54.48
2023-02-11T10:13:25.977Z,54.41
2023-02-11T10:16:17.220Z,55.16
2023-02-11T10:18:56.674Z,54.94
2023-02-11T10:21:38.575Z,55.08
2023-02-11T10:24:12.549Z,54.83
2023-02-11T10:26:40.949Z,55.34
2023-02-11T10:29:30.907Z,56.29
2023-02-11T10:31:59.594Z,55.61
2023-02-11T10:34:26.724Z,56.09
2023-02-11T10:36:53.922Z,55.80
2023-02-11T10:39:23.942Z,56.63
2023-02-11T10:41:56.553Z,56.86
2023-02-11T10:44:31.354Z,56.94
2023-02-11T10:47:04.665Z,56.70
2023-02-11T10:49:38.025Z,56.84
2023-02-11T10:52:26.298Z,56.77
2023-02-11T10:55:27.925Z,56.31
2023-02-11T10:57:55.065Z,56.93
2023-02-11T11:00:39.264Z,56.91
2023-02-11T11:03:25.615Z,56.60
2023-02-11T11:06:03.997Z,56.75
2023-02-11T11:08:48.414Z,56.58
2023-02-11T11:11:20.871Z,57.17
2023-02-11T11:13:53.909Z,57.33
2023-02-11T11:16:22.811Z,57.50
2023-02-11T11:18:53.172Z,57.26
2023-02-11T11:21:22.128Z,57.62
2023-02-11T11:23:55.950Z,57.40
2023-02-11T11:26:24.736Z,57.13
2023-02-11T11:28:54.778Z,57.17
2023-02-11T11:31:33.812Z,57.07
2023-02-11T11:34:22.110Z,57.31
2023-02-11T11:36:50.652Z,57.62
2023-02-11T11:39:33.756Z,57.19
2023-02-11T11:42:05.482Z,57.47
2023-02-11T11:44:38.367Z,57.00
2023-02-11T11:47:11.250Z,56.52
2023-02-11T11:49:42.083Z,56.86
2023-02-11T11:52:27.265Z,56.79
2023-02-11T11:55:03.059Z,56.54
2023-02-11T11:57:31.473Z,56.40
2023-02-11T11:59:58.861Z,56.50
2023-02-11T12:02:47.419Z,56.45
2023-02-11T12:05:33.393Z,56.75
2023-02-11T12:08:29.234Z,56.14
2023-02-11T12:11:14.076Z,56.20
2023-02-11T12:13:50.156Z,55.91
2023-02-11T12:16:23.536Z,56.12
2023-02-11T12:18:56.363Z,56.37
2023-02-11T12:21:41.937Z,56.31
2023-02-11T12:24:17.638Z,55.72
2023-02-11T12:26:58.145Z,56.56
2023-02-11T12:29:35.194Z,56.17
2023-02-11T12:32:04.831Z,55.64
2023-02-11T12:35:06.302Z,55.80
2023-02-11T12:37:50.258Z,56.19
2023-02-11T12:40:31.551Z,55.92
2023-02-11T12:43:20.389Z,56.31
2023-02-11T12:46:10.042Z,56.37
2023-02-11T12:48:45.952Z,56.83
2023-02-11T12:51:37.308Z,56.09
2023-02-11T12:54:13.112Z,56.46
2023-02-11T12:56:42.960Z,56.33
2023-02-11T12:59:29.308Z,56.68
2023-02-11T13:01:59.832Z,56.63
2023-02-11T13:04:37.790Z,56.47
2023-02-11T13:07:15.999Z,56.48
2023-02-11T13:09:50.750Z,56.55
2023-02-11T13:12:37.034Z,56.64
2023-02-11T13:15:12.799Z,56.96
2023-02-11T13:18:05.721Z,56.55
2023-02-11T13:20:45.557Z,57.00
2023-02-11T13:23:37.498Z,56.62
2023-02-11T13:26:16.255Z,57.68
2023-02-11T13:29:06.105Z,57.58
2023-02-11T13:31:33.495Z,57.72
2023-02-11T13:34:01.118Z,57.55
2023-02-11T13:36:32.984Z,57.90
2023-02-11T13:39:19.586Z,57.23
2023-02-11T13:41:52.478Z,57.76
2023-02-11T13:44:23.866Z,58.27
2023-02-11T13:46:54.364Z,57.92
2023-02-11T13:49:29.838Z,57.55
2023-02-11T13:51:57.903Z,58.42
2023-02-11T13:54:34.856Z,58.06
2023-02-11T13:57:20.229Z,58.08
2023-02-11T13:59:48.602Z,58.13
2023-02-11T14:02:55.718Z,59.39
2023-02-11T14:05:45.336Z,59.47
2023-02-11T14:08:30.776Z,59.71
2023-02-11T14:11:03.339Z,59.58
2023-02-11T14:13:57.108Z,60.15
2023-02-11T14:16:37.610Z,61.29
2023-02-11T14:19:06.552Z,60.09
2023-02-11T14:21:42.617Z,61.01
2023-02-11T14:24:13.175Z,61.41
2023-02-11T14:26:46.167Z,61.77
2023-02-11T14:29:34.432Z,61.93
2023-02-11T14:32:06.183Z,62.45
2023-02-11T14:34:53.739Z,62.65
2023-02-11T14:37:20.671Z,62.28
2023-02-11T14:40:02.885Z,62.01
2023-02-11T14:42:31.367Z,62.54
2023-02-11T14:45:05.278Z,62.19
2023-02-11T14:47:45.785Z,62.47
2023-02-11T14:50:29.154Z,65.17
2023-02-11T14:52:57.876Z,63.12
2023-02-11T14:55:38.257Z,64.16
2023-02-11T14:58:15.467Z,64.75
2023-02-11T15:01:01.824Z,64.41
2023-02-11T15:03:37.238Z,64.86
2023-02-11T15:06:20.930Z,65.48
2023-02-11T15:09:01.048Z,64.79
2023-02-11T15:11:32.377Z,65.11
2023-02-11T15:14:08.240Z,66.05
2023-02-11T15:16:40.684Z,67.21
2023-02-11T15:19:08.076Z,65.74
2023-02-11T15:21:36.442Z,65.72
2023-02-11T15:24:20.639Z,65.39
2023-02-11T15:26:58.497Z,66.79
2023-02-11T15:29:27.077Z,66.89
2023-02-11T15:32:10.492Z,66.46
2023-02-11T15:34:37.776Z,66.22
2023-02-11T15:37:05.521Z,65.70
2023-02-11T15:39:37.493Z,66.96
2023-02-11T15:42:51.713Z,67.52
2023-02-11T15:45:29.045Z,66.70
2023-02-11T15:48:23.503Z,66.87
2023-02-11T15:50:54.278Z,65.92
2023-02-11T15:53:33.348Z,68.39
2023-02-11T15:56:26.737Z,69.12
2023-02-11T15:58:57.531Z,67.60
2023-02-11T16:01:37.088Z,68.56
2023-02-11T16:04:05.851Z,66.78
2023-02-11T16:06:40.008Z,67.23
2023-02-11T16:09:12.725Z,68.40
2023-02-11T16:11:48.947Z,67.96
2023-02-11T16:14:27.712Z,67.89
2023-02-11T16:16:59.924Z,67.61
2023-02-11T16:19:28.745Z,67.97
2023-02-11T16:21:58.558Z,68.32
2023-02-11T16:24:34.337Z,68.40
2023-02-11T16:27:03.521Z,68.24
2023-02-11T16:29:33.296Z,68.38
2023-02-11T16:32:15.751Z,68.70
2023-02-11T16:34:42.841Z,70.11
2023-02-11T16:37:09.968Z,69.91
2023-02-11T16:39:37.729Z,69.59
2023-02-11T16:42:07.684Z,70.14
2023-02-11T16:44:35.983Z,69.70
2023-02-11T16:47:04.617Z,69.61
2023-02-11T16:49:36.905Z,68.82
2023-02-11T16:52:08.051Z,69.33
2023-02-11T16:54:35.205Z,69.63
2023-02-11T16:57:06.164Z,69.19
2023-02-11T16:59:33.161Z,69.61
2023-02-11T17:02:00.226Z,71.30
2023-02-11T17:04:30.198Z,70.60
2023-02-11T17:06:58.677Z,69.55
2023-02-11T17:09:30.621Z,69.76
2023-02-11T17:11:58.097Z,70.54
2023-02-11T17:14:25.245Z,70.52
2023-02-11T17:16:52.318Z,71.00
2023-02-11T17:19:21.232Z,71.92
2023-02-11T17:21:50.628Z,71.04
2023-02-11T17:24:18.662Z,70.94
2023-02-11T17:26:46.649Z,71.35
2023-02-11T17:29:22.387Z,71.58
2023-02-11T17:31:52.024Z,72.09
2023-02-11T17:34:20.315Z,71.54
2023-02-11T17:36:47.327Z,71.44
2023-02-11T17:39:14.403Z,71.26
2023-02-11T17:41:41.697Z,71.11
2023-02-11T17:44:12.566Z,70.86
2023-02-11T17:46:39.780Z,72.21
2023-02-11T17:49:06.878Z,72.25
2023-02-11T17:51:36.834Z,72.47
2023-02-11T17:54:08.171Z,71.55
2023-02-11T17:56:36.903Z,71.46
2023-02-11T17:59:05.185Z,70.75
2023-02-11T18:01:33.949Z,70.76
2023-02-11T18:04:01.813Z,71.03
2023-02-11T18:06:29.325Z,71.73
2023-02-11T18:08:58.039Z,71.41
2023-02-11T18:11:26.074Z,70.72
2023-02-11T18:13:54.684Z,70.77
2023-02-11T18:16:23.057Z,70.69
2023-02-11T18:18:50.970Z,70.78
2023-02-11T18:21:20.601Z,71.36
2023-02-11T18:23:49.061Z,71.28
2023-02-11T18:26:18.314Z,71.32
2023-02-11T18:28:46.072Z,71.73
2023-02-11T18:31:14.290Z,71.67
2023-02-11T18:33:42.328Z,72.16
2023-02-11T18:36:12.364Z,71.59
2023-02-11T18:38:40.071Z,71.08
2023-02-11T18:41:08.359Z,70.89
2023-02-11T18:43:36.276Z,70.94
2023-02-11T18:46:08.773Z,71.67
2023-02-11T18:48:36.190Z,71.05
2023-02-11T18:51:11.978Z,71.29
2023-02-11T18:53:39.561Z,71.60
2023-02-11T18:56:17.362Z,72.03
2023-02-11T18:58:44.817Z,71.41
2023-02-11T19:01:13.280Z,71.19
2023-02-11T19:03:40.390Z,71.50
2023-02-11T19:06:08.064Z,71.60
2023-02-11T19:08:35.143Z,71.90
2023-02-11T19:11:04.860Z,71.72
2023-02-11T19:13:31.891Z,71.66
2023-02-11T19:15:59.203Z,71.63
2023-02-11T19:18:26.395Z,72.41
2023-02-11T19:20:53.377Z,73.51
2023-02-11T19:23:20.419Z,72.89
2023-02-11T19:25:48.913Z,72.90
2023-02-11T19:28:16.251Z,72.48
2023-02-11T19:30:43.350Z,72.68
2023-02-11T19:33:11.055Z,73.06
2023-02-11T19:35:38.132Z,73.37
2023-02-11T19:38:05.806Z,73.16
2023-02-11T19:40:33.205Z,73.02
2023-02-11T19:43:00.272Z,72.20
2023-02-11T19:45:27.329Z,72.57
2023-02-11T19:47:57.588Z,73.02
2023-02-11T19:50:25.498Z,72.08
2023-02-11T19:52:52.516Z,72.76
2023-02-11T19:55:19.620Z,72.24
2023-02-11T19:57:46.721Z,72.59
2023-02-11T20:00:14.330Z,72.28
2023-02-11T20:02:41.565Z,72.34
2023-02-11T20:05:08.853Z,72.33
2023-02-11T20:07:37.141Z,72.78
2023-02-11T20:10:04.487Z,72.46
2023-02-11T20:12:31.581Z,72.30
2023-02-11T20:14:58.552Z,72.30
2023-02-11T20:17:25.615Z,72.94
2023-02-11T20:19:52.782Z,72.66
2023-02-11T20:22:19.742Z,73.63
2023-02-11T20:24:46.750Z,73.47
2023-02-11T20:27:13.845Z,72.72
2023-02-11T20:29:41.491Z,72.79
2023-02-11T20:32:08.730Z,73.05
2023-02-11T20:34:35.761Z,72.52
2023-02-11T20:37:04.228Z,72.77
2023-02-11T20:39:31.225Z,72.44
2023-02-11T20:41:58.541Z,72.74
2023-02-11T20:44:25.599Z,73.19
2023-02-11T20:46:54.582Z,73.36
2023-02-11T20:49:24.377Z,73.04
2023-02-11T20:51:53.969Z,73.36
2023-02-11T20:54:23.385Z,73.19
2023-02-11T20:56:51.573Z,72.85
2023-02-11T20:59:19.701Z,72.64
2023-02-11T21:01:53.646Z,72.40
2023-02-11T21:04:29.593Z,72.18
2023-02-11T21:06:59.831Z,72.32
2023-02-11T21:09:29.978Z,72.56
2023-02-11T21:11:57.179Z,72.32
2023-02-11T21:14:25.018Z,72.64
2023-02-11T21:16:52.564Z,72.41
2023-02-11T21:19:20.428Z,72.24
2023-02-11T21:21:47.708Z,72.22
2023-02-11T21:24:15.323Z,72.68
2023-02-11T21:26:42.570Z,72.45
2023-02-11T21:29:10.466Z,72.48
2023-02-11T21:31:38.241Z,72.27
2023-02-11T21:34:06.445Z,72.32
2023-02-11T21:36:34.055Z,73.25
2023-02-11T21:39:01.992Z,72.85
2023-02-11T21:41:29.595Z,72.50
2023-02-11T21:43:56.944Z,72.73
2023-02-11T21:46:24.580Z,72.48
2023-02-11T21:48:51.733Z,72.08
2023-02-11T21:51:22.091Z,72.67
2023-02-11T21:53:56.859Z,72.64
2023-02-11T21:56:26.488Z,72.86
2023-02-11T21:58:55.391Z,72.52
2023-02-11T22:01:26.308Z,72.67
2023-02-11T22:03:53.666Z,72.81
2023-02-11T22:06:26.619Z,72.63
2023-02-11T22:08:54.695Z,72.54
2023-02-11T22:11:22.272Z,73.06
2023-02-11T22:13:54.154Z,72.10
2023-02-11T22:16:21.401Z,72.45
2023-02-11T22:18:48.661Z,72.69
2023-02-11T22:21:18.808Z,72.22
2023-02-11T22:23:46.984Z,72.68
2023-02-11T22:26:17.749Z,72.74
2023-02-11T22:28:45.078Z,72.82
2023-02-11T22:31:18.149Z,72.44
2023-02-11T22:33:45.664Z,72.44
2023-02-11T22:36:25.023Z,72.20
2023-02-11T22:38:53.150Z,72.37
2023-02-11T22:41:21.201Z,72.23
2023-02-11T22:43:48.988Z,72.54
2023-02-11T22:46:18.323Z,73.13
2023-02-11T22:48:46.241Z,72.58
2023-02-11T22:51:16.516Z,72.76
2023-02-11T22:53:46.300Z,72.58
2023-02-11T22:56:15.645Z,72.45
2023-02-11T22:58:43.288Z,72.41
2023-02-11T23:01:10.546Z,72.32
2023-02-11T23:03:37.593Z,72.38
2023-02-11T23:06:05.219Z,72.42
2023-02-11T23:08:33.806Z,72.96
2023-02-11T23:11:08.950Z,72.54
2023-02-11T23:13:38.245Z,72.36
2023-02-11T23:16:08.203Z,72.89
2023-02-11T23:18:37.173Z,72.96
2023-02-11T23:21:08.222Z,73.07
2023-02-11T23:23:36.624Z,73.39
2023-02-11T23:26:05.240Z,73.04
2023-02-11T23:28:32.323Z,73.11
2023-02-11T23:30:59.399Z,73.22
2023-02-11T23:33:26.429Z,73.25
2023-02-11T23:35:53.830Z,73.31
2023-02-11T23:38:21.016Z,73.46
2023-02-11T23:40:47.966Z,73.35
2023-02-11T23:43:15.056Z,73.37
2023-02-11T23:45:42.158Z,73.28
2023-02-11T23:48:09.310Z,73.80
2023-02-11T23:50:39.713Z,73.70
2023-02-11T23:53:06.708Z,73.26
2023-02-11T23:55:39.991Z,72.44
2023-02-11T23:58:07.573Z,73.48
